createdAt,value
2022-11-28T00:01:30.661Z,52.91
2022-11-28T00:03:58.548Z,51.57
2022-11-28T00:06:27.375Z,51.40
2022-11-28T00:08:56.034Z,51.32
2022-11-28T00:11:23.834Z,51.66
2022-11-28T00:13:51.701Z,51.61
2022-11-28T00:16:21.889Z,51.46
2022-11-28T00:18:52.294Z,51.72
2022-11-28T00:21:20.667Z,51.52
2022-11-28T00:23:49.593Z,51.73
2022-11-28T00:26:20.505Z,51.57
2022-11-28T00:28:48.441Z,51.88
2022-11-28T00:31:17.535Z,51.88
2022-11-28T00:33:45.495Z,51.80
2022-11-28T00:36:15.615Z,51.71
2022-11-28T00:38:43.576Z,51.94
2022-11-28T00:41:14.461Z,52.02
2022-11-28T00:43:43.262Z,51.91
2022-11-28T00:46:11.511Z,52.01
2022-11-28T00:48:39.477Z,51.74
2022-11-28T00:51:08.142Z,51.77
2022-11-28T00:53:38.106Z,51.85
2022-11-28T00:56:07.623Z,51.89
2022-11-28T00:58:36.878Z,52.01
2022-11-28T01:01:09.336Z,52.32
2022-11-28T01:03:37.251Z,52.02
2022-11-28T01:06:05.453Z,51.96
2022-11-28T01:08:33.447Z,52.10
2022-11-28T01:11:02.987Z,52.22
2022-11-28T01:13:31.230Z,52.15
2022-11-28T01:15:59.537Z,52.35
2022-11-28T01:18:27.477Z,52.28
2022-11-28T01:20:55.331Z,52.51
2022-11-28T01:23:23.203Z,52.31
2022-11-28T01:25:51.011Z,52.43
2022-11-28T01:28:20.266Z,52.52
2022-11-28T01:30:48.108Z,52.65
2022-11-28T01:33:15.931Z,52.44
2022-11-28T01:35:43.721Z,52.83
2022-11-28T01:38:11.557Z,52.38
2022-11-28T01:40:45.928Z,53.77
2022-11-28T01:43:13.766Z,52.71
2022-11-28T01:45:43.493Z,52.72
2022-11-28T01:48:13.946Z,52.80
2022-11-28T01:50:43.532Z,52.51
2022-11-28T01:53:12.011Z,52.41
2022-11-28T01:55:43.939Z,52.74
2022-11-28T01:58:13.081Z,52.75
2022-11-28T02:00:42.306Z,52.62
2022-11-28T02:03:15.531Z,53.02
2022-11-28T02:05:43.496Z,52.70
2022-11-28T02:08:11.296Z,52.47
2022-11-28T02:11:05.758Z,53.30
2022-11-28T02:13:40.941Z,52.95
2022-11-28T02:16:32.101Z,53.47
2022-11-28T02:19:23.573Z,53.42
2022-11-28T02:22:02.094Z,53.16
2022-11-28T02:25:17.323Z,53.43
2022-11-28T02:28:30.763Z,53.56
2022-11-28T02:31:07.701Z,53.12
2022-11-28T02:33:39.500Z,52.88
2022-11-28T02:36:13.775Z,53.08
2022-11-28T02:38:58.845Z,53.16
2022-11-28T02:41:34.387Z,53.18
2022-11-28T02:44:11.759Z,53.43
2022-11-28T02:46:48.711Z,53.14
2022-11-28T02:49:22.756Z,53.24
2022-11-28T02:51:56.435Z,53.33
2022-11-28T02:54:26.456Z,53.01
2022-11-28T02:56:55.885Z,52.71
2022-11-28T02:59:45.528Z,53.67
2022-11-28T03:02:18.499Z,53.26
2022-11-28T03:04:51.740Z,53.98
2022-11-28T03:07:32.255Z,53.61
2022-11-28T03:10:22.854Z,53.54
2022-11-28T03:12:59.038Z,53.35
2022-11-28T03:15:34.546Z,53.55
2022-11-28T03:18:12.623Z,53.18
2022-11-28T03:20:48.752Z,53.61
2022-11-28T03:23:20.727Z,53.18
2022-11-28T03:25:58.899Z,53.53
2022-11-28T03:28:32.407Z,53.22
2022-11-28T03:31:03.769Z,53.00
2022-11-28T03:33:35.247Z,53.23
2022-11-28T03:36:09.485Z,53.82
2022-11-28T03:38:42.908Z,53.31
2022-11-28T03:41:16.187Z,53.41
2022-11-28T03:43:50.146Z,53.21
2022-11-28T03:46:21.456Z,53.40
2022-11-28T03:48:53.600Z,53.65
2022-11-28T03:51:29.655Z,53.83
2022-11-28T03:54:02.112Z,53.56
2022-11-28T03:56:40.598Z,53.89
2022-11-28T03:59:14.490Z,53.52
2022-11-28T04:01:52.411Z,53.95
2022-11-28T04:04:25.943Z,53.52
2022-11-28T04:06:59.595Z,54.06
2022-11-28T04:09:40.646Z,54.17
2022-11-28T04:12:15.479Z,53.96
2022-11-28T04:14:48.585Z,53.84
2022-11-28T04:17:20.714Z,53.64
2022-11-28T04:19:52.471Z,53.73
2022-11-28T04:22:25.470Z,54.01
2022-11-28T04:24:55.418Z,54.93
2022-11-28T04:27:28.750Z,53.84
2022-11-28T04:30:00.517Z,53.57
2022-11-28T04:32:32.411Z,53.65
2022-11-28T04:35:04.904Z,53.76
2022-11-28T04:37:36.990Z,53.95
2022-11-28T04:40:06.824Z,53.73
2022-11-28T04:42:41.050Z,53.80
2022-11-28T04:45:12.813Z,53.82
2022-11-28T04:47:40.762Z,53.83
2022-11-28T04:50:10.172Z,53.59
2022-11-28T04:52:47.813Z,54.05
2022-11-28T04:55:25.634Z,54.16
2022-11-28T04:57:58.493Z,53.63
2022-11-28T05:00:28.165Z,53.76
2022-11-28T05:02:57.897Z,53.71
2022-11-28T05:05:28.426Z,53.79
2022-11-28T05:07:59.644Z,54.12
2022-11-28T05:10:27.603Z,53.61
2022-11-28T05:12:55.604Z,53.76
2022-11-28T05:15:23.537Z,53.42
2022-11-28T05:17:51.339Z,53.80
2022-11-28T05:20:19.475Z,53.56
2022-11-28T05:22:47.458Z,53.72
2022-11-28T05:25:17.478Z,54.07
2022-11-28T05:27:45.287Z,53.60
2022-11-28T05:30:14.965Z,53.49
2022-11-28T05:32:42.893Z,53.53
2022-11-28T05:35:11.065Z,53.81
2022-11-28T05:37:39.170Z,53.69
2022-11-28T05:40:08.130Z,53.57
2022-11-28T05:42:37.429Z,53.84
2022-11-28T05:45:05.851Z,53.58
2022-11-28T05:47:34.362Z,53.50
2022-11-28T05:50:02.366Z,53.71
2022-11-28T05:52:32.202Z,53.74
2022-11-28T05:55:01.487Z,53.67
2022-11-28T05:57:31.977Z,53.73
2022-11-28T06:00:01.166Z,53.50
2022-11-28T06:02:29.014Z,53.45
2022-11-28T06:04:57.045Z,53.66
2022-11-28T06:07:24.900Z,53.62
2022-11-28T06:09:52.874Z,53.36
2022-11-28T06:12:20.661Z,53.36
2022-11-28T06:14:48.790Z,53.56
2022-11-28T06:17:17.976Z,53.48
2022-11-28T06:19:46.137Z,53.34
2022-11-28T06:22:14.028Z,53.36
2022-11-28T06:24:41.984Z,53.36
2022-11-28T06:27:09.868Z,53.31
2022-11-28T06:29:37.680Z,53.35
2022-11-28T06:32:08.068Z,53.25
2022-11-28T06:34:40.228Z,53.48
2022-11-28T06:37:08.683Z,53.35
2022-11-28T06:39:36.619Z,53.62
2022-11-28T06:42:04.624Z,53.27
2022-11-28T06:44:32.598Z,53.25
2022-11-28T06:47:00.465Z,53.49
2022-11-28T06:49:28.314Z,53.26
2022-11-28T06:51:57.528Z,53.50
2022-11-28T06:54:25.284Z,53.50
2022-11-28T06:56:53.118Z,53.38
2022-11-28T06:59:20.914Z,53.35
2022-11-28T07:01:49.428Z,53.24
2022-11-28T07:04:17.315Z,53.64
2022-11-28T07:06:45.728Z,53.62
2022-11-28T07:09:14.836Z,53.52
2022-11-28T07:11:43.443Z,53.36
2022-11-28T07:14:11.487Z,53.59
2022-11-28T07:16:39.481Z,53.59
2022-11-28T07:19:07.343Z,53.42
2022-11-28T07:21:35.456Z,53.57
2022-11-28T07:24:03.235Z,53.58
2022-11-28T07:26:33.623Z,53.53
2022-11-28T07:29:01.411Z,53.58
2022-11-28T07:31:32.229Z,53.49
2022-11-28T07:34:01.857Z,53.64
2022-11-28T07:36:30.347Z,53.39
2022-11-28T07:39:00.397Z,53.63
2022-11-28T07:41:28.775Z,53.66
2022-11-28T07:44:01.150Z,53.84
2022-11-28T07:46:31.164Z,53.47
2022-11-28T07:48:59.129Z,53.55
2022-11-28T07:51:29.251Z,53.59
2022-11-28T07:53:57.492Z,53.45
2022-11-28T07:56:39.327Z,53.43
2022-11-28T07:59:13.822Z,53.58
2022-11-28T08:01:41.682Z,53.50
2022-11-28T08:04:10.920Z,53.60
2022-11-28T08:06:41.186Z,53.56
2022-11-28T08:09:09.449Z,53.78
2022-11-28T08:11:37.586Z,53.50
2022-11-28T08:14:05.733Z,53.54
2022-11-28T08:16:35.136Z,53.52
2022-11-28T08:19:03.830Z,53.56
2022-11-28T08:21:33.443Z,53.48
2022-11-28T08:24:02.783Z,53.69
2022-11-28T08:26:32.085Z,53.61
2022-11-28T08:29:00.398Z,53.63
2022-11-28T08:31:30.223Z,53.47
2022-11-28T08:34:01.492Z,53.64
2022-11-28T08:36:29.896Z,53.74
2022-11-28T08:39:16.535Z,53.45
2022-11-28T08:41:46.392Z,53.75
2022-11-28T08:44:14.561Z,53.65
2022-11-28T08:46:42.630Z,53.45
2022-11-28T08:49:11.940Z,53.59
2022-11-28T08:51:40.075Z,53.37
2022-11-28T08:54:07.909Z,53.76
2022-11-28T08:56:36.194Z,53.75
2022-11-28T08:59:04.647Z,53.52
2022-11-28T09:01:32.553Z,53.59
2022-11-28T09:04:00.560Z,53.36
2022-11-28T09:06:29.852Z,53.62
2022-11-28T09:08:58.889Z,53.80
2022-11-28T09:11:26.825Z,53.63
2022-11-28T09:13:55.709Z,53.71
2022-11-28T09:16:23.760Z,53.57
2022-11-28T09:18:52.420Z,53.75
2022-11-28T09:21:20.248Z,53.52
2022-11-28T09:23:49.428Z,53.61
2022-11-28T09:26:19.459Z,53.62
2022-11-28T09:28:47.898Z,53.70
2022-11-28T09:31:17.224Z,53.47
2022-11-28T09:33:45.752Z,53.94
2022-11-28T09:36:18.686Z,53.92
2022-11-28T09:38:46.872Z,54.66
2022-11-28T09:41:50.627Z,54.27
2022-11-28T09:44:23.923Z,53.83
2022-11-28T09:46:55.817Z,53.92
2022-11-28T09:49:36.724Z,53.81
2022-11-28T09:52:18.882Z,53.90
2022-11-28T09:54:53.407Z,53.96
2022-11-28T09:57:31.016Z,54.16
2022-11-28T10:00:11.175Z,54.04
2022-11-28T10:02:46.998Z,53.91
2022-11-28T10:05:24.357Z,54.10
2022-11-28T10:08:11.683Z,54.39
2022-11-28T10:10:48.846Z,54.14
2022-11-28T10:13:22.464Z,54.16
2022-11-28T10:15:58.670Z,54.45
2022-11-28T10:18:36.277Z,54.60
2022-11-28T10:21:11.327Z,54.16
2022-11-28T10:23:43.429Z,54.00
2022-11-28T10:26:19.300Z,54.18
2022-11-28T10:28:51.582Z,53.98
2022-11-28T10:31:27.870Z,54.16
2022-11-28T10:34:02.143Z,54.16
2022-11-28T10:36:35.101Z,53.93
2022-11-28T10:39:11.170Z,54.91
2022-11-28T10:41:45.479Z,54.26
2022-11-28T10:44:21.598Z,54.27
2022-11-28T10:46:59.247Z,54.27
2022-11-28T10:49:36.601Z,54.55
2022-11-28T10:52:12.942Z,54.58
2022-11-28T10:54:57.476Z,54.38
2022-11-28T10:57:31.432Z,54.50
2022-11-28T11:00:08.315Z,54.48
2022-11-28T11:02:41.354Z,54.30
2022-11-28T11:05:13.074Z,55.43
2022-11-28T11:07:47.977Z,54.92
2022-11-28T11:10:18.019Z,54.25
2022-11-28T11:12:46.647Z,54.22
2022-11-28T11:15:22.603Z,54.80
2022-11-28T11:17:51.823Z,54.35
2022-11-28T11:20:36.315Z,54.73
2022-11-28T11:23:14.011Z,54.91
2022-11-28T11:25:50.775Z,54.80
2022-11-28T11:28:41.709Z,54.97
2022-11-28T11:31:20.521Z,54.79
2022-11-28T11:33:49.888Z,54.35
2022-11-28T11:36:25.983Z,54.70
2022-11-28T11:39:05.039Z,54.52
2022-11-28T11:41:34.296Z,54.33
2022-11-28T11:44:30.245Z,54.97
2022-11-28T11:47:03.512Z,55.00
2022-11-28T11:49:33.410Z,54.66
2022-11-28T11:52:03.866Z,54.45
2022-11-28T11:54:31.767Z,54.65
2022-11-28T11:57:30.821Z,54.83
2022-11-28T11:59:52.647Z,55.12
2022-11-28T12:02:28.901Z,55.10
2022-11-28T12:05:03.369Z,55.30
2022-11-28T12:07:43.089Z,55.24
2022-11-28T12:10:16.413Z,55.42
2022-11-28T12:12:44.250Z,55.10
2022-11-28T12:15:22.754Z,55.90
2022-11-28T12:18:07.628Z,55.69
2022-11-28T12:20:54.573Z,55.74
2022-11-28T12:23:50.685Z,56.06
2022-11-28T12:26:24.462Z,55.48
2022-11-28T12:29:06.962Z,56.17
2022-11-28T12:31:46.779Z,55.91
2022-11-28T12:34:29.033Z,55.99
2022-11-28T12:37:07.460Z,56.06
2022-11-28T12:39:46.449Z,56.17
2022-11-28T12:42:39.881Z,56.57
2022-11-28T12:45:31.529Z,56.60
2022-11-28T12:48:09.036Z,55.90
2022-11-28T12:50:41.117Z,56.14
2022-11-28T12:53:30.765Z,56.55
2022-11-28T12:56:10.987Z,56.69
2022-11-28T12:58:44.840Z,56.27
2022-11-28T13:01:29.650Z,56.54
2022-11-28T13:04:07.039Z,56.58
2022-11-28T13:06:42.107Z,56.49
2022-11-28T13:09:28.090Z,56.75
2022-11-28T13:12:08.232Z,56.62
2022-11-28T13:14:47.638Z,56.67
2022-11-28T13:17:30.314Z,56.98
2022-11-28T13:20:08.754Z,56.63
2022-11-28T13:22:49.567Z,56.93
2022-11-28T13:25:23.689Z,56.39
2022-11-28T13:28:01.095Z,56.69
2022-11-28T13:30:33.317Z,56.22
2022-11-28T13:33:08.588Z,56.83
2022-11-28T13:35:37.167Z,56.25
2022-11-28T13:41:22.910Z,56.47
2022-11-28T13:44:04.838Z,57.01
2022-11-28T13:46:34.782Z,56.64
2022-11-28T13:49:15.432Z,56.91
2022-11-28T13:51:43.769Z,56.39
2022-11-28T13:54:52.582Z,57.59
2022-11-28T13:57:29.992Z,57.21
2022-11-28T14:00:04.497Z,56.46
2022-11-28T14:02:45.917Z,56.48
2022-11-28T14:05:29.839Z,57.34
2022-11-28T14:07:58.606Z,56.67
2022-11-28T14:10:41.537Z,57.09
2022-11-28T14:13:23.188Z,57.10
2022-11-28T14:16:04.795Z,57.27
2022-11-28T14:18:56.730Z,57.32
2022-11-28T14:21:33.763Z,56.91
2022-11-28T14:24:14.036Z,57.13
2022-11-28T14:26:45.065Z,56.86
2022-11-28T14:29:23.966Z,57.37
2022-11-28T14:32:22.210Z,56.75
2022-11-28T14:34:45.642Z,56.83
2022-11-28T14:37:57.566Z,57.92
2022-11-28T14:41:05.652Z,57.88
2022-11-28T14:43:37.287Z,56.95
2022-11-28T14:46:26.517Z,57.85
2022-11-28T14:49:31.120Z,57.77
2022-11-28T14:52:38.965Z,57.88
2022-11-28T14:55:18.670Z,57.47
2022-11-28T14:57:59.026Z,57.81
2022-11-28T15:00:32.887Z,57.20
2022-11-28T15:03:13.697Z,57.53
2022-11-28T15:05:47.118Z,57.08
2022-11-28T15:08:37.339Z,57.85
2022-11-28T15:11:16.912Z,57.36
2022-11-28T15:13:59.126Z,57.56
2022-11-28T15:16:30.829Z,57.43
2022-11-28T15:19:06.073Z,57.17
2022-11-28T15:21:44.645Z,57.73
2022-11-28T15:24:23.928Z,57.34
2022-11-28T15:26:57.147Z,57.29
2022-11-28T15:29:27.888Z,56.96
2022-11-28T15:31:58.985Z,57.25
2022-11-28T15:34:29.987Z,57.03
2022-11-28T15:37:00.571Z,57.26
2022-11-28T15:39:34.935Z,57.32
2022-11-28T15:42:05.784Z,57.35
2022-11-28T15:44:34.064Z,57.27
2022-11-28T15:47:03.748Z,57.23
2022-11-28T15:49:35.564Z,57.46
2022-11-28T15:52:05.939Z,57.56
2022-11-28T15:54:41.205Z,57.24
2022-11-28T15:57:20.275Z,57.99
2022-11-28T15:59:48.258Z,57.22
2022-11-28T16:02:23.875Z,57.58
2022-11-28T16:04:56.151Z,57.54
2022-11-28T16:07:24.100Z,57.20
2022-11-28T16:09:59.441Z,57.63
2022-11-28T16:12:28.804Z,56.97
2022-11-28T16:15:01.708Z,57.37
2022-11-28T16:17:34.034Z,57.75
2022-11-28T16:20:04.538Z,57.55
2022-11-28T16:22:36.596Z,57.44
2022-11-28T16:25:21.608Z,58.10
2022-11-28T16:27:53.117Z,57.54
2022-11-28T16:30:38.431Z,57.69
2022-11-28T16:33:39.094Z,58.00
2022-11-28T16:36:21.536Z,58.21
2022-11-28T16:38:51.441Z,57.71
2022-11-28T16:41:23.348Z,57.48
2022-11-28T16:43:55.462Z,57.80
2022-11-28T16:46:25.467Z,57.45
2022-11-28T16:48:58.590Z,57.72
2022-11-28T16:51:38.193Z,57.96
2022-11-28T16:54:28.777Z,58.26
2022-11-28T16:56:58.488Z,57.31
2022-11-28T16:59:26.862Z,57.47
2022-11-28T17:01:55.621Z,57.47
2022-11-28T17:04:26.588Z,57.82
2022-11-28T17:06:56.376Z,57.66
2022-11-28T17:09:24.381Z,57.27
2022-11-28T17:11:57.408Z,57.73
2022-11-28T17:14:25.384Z,57.50
2022-11-28T17:16:53.245Z,57.73
2022-11-28T17:19:21.090Z,57.55
2022-11-28T17:21:52.931Z,58.13
2022-11-28T17:24:24.834Z,57.79
2022-11-28T17:26:54.179Z,57.55
2022-11-28T17:29:22.906Z,57.38
2022-11-28T17:31:50.851Z,57.67
2022-11-28T17:34:20.460Z,57.77
2022-11-28T17:36:48.737Z,57.68
2022-11-28T17:39:18.827Z,57.60
2022-11-28T17:41:47.840Z,57.48
2022-11-28T17:44:18.899Z,57.77
2022-11-28T17:46:46.912Z,57.56
2022-11-28T17:49:15.524Z,57.82
2022-11-28T17:51:44.314Z,57.48
2022-11-28T17:54:14.007Z,57.68
2022-11-28T17:56:43.619Z,57.87
2022-11-28T17:59:13.204Z,57.74
2022-11-28T18:01:41.800Z,57.89
2022-11-28T18:04:09.731Z,57.40
2022-11-28T18:06:37.844Z,57.40
2022-11-28T18:09:11.738Z,57.86
2022-11-28T18:11:42.457Z,57.94
2022-11-28T18:14:12.007Z,57.75
2022-11-28T18:16:42.940Z,57.58
2022-11-28T18:19:14.221Z,57.99
2022-11-28T18:21:42.025Z,57.79
2022-11-28T18:24:10.424Z,57.65
2022-11-28T18:26:38.586Z,57.57
2022-11-28T18:29:09.199Z,57.68
2022-11-28T18:31:39.813Z,57.64
2022-11-28T18:34:09.549Z,57.50
2022-11-28T18:36:39.074Z,57.83
2022-11-28T18:39:12.208Z,57.82
2022-11-28T18:41:40.930Z,57.84
2022-11-28T18:44:09.431Z,57.43
2022-11-28T18:46:39.605Z,58.03
2022-11-28T18:49:08.170Z,57.70
2022-11-28T18:51:36.703Z,57.58
2022-11-28T18:54:06.252Z,57.43
2022-11-28T18:56:35.752Z,57.67
2022-11-28T18:59:04.408Z,57.81
2022-11-28T19:01:36.584Z,57.64
2022-11-28T19:04:07.746Z,59.04
2022-11-28T19:06:38.819Z,57.59
2022-11-28T19:09:09.295Z,57.78
2022-11-28T19:11:39.732Z,57.87
2022-11-28T19:14:09.214Z,57.86
2022-11-28T19:16:38.581Z,57.52
2022-11-28T19:19:07.921Z,58.08
2022-11-28T19:21:38.414Z,58.06
2022-11-28T19:24:08.814Z,58.05
2022-11-28T19:26:38.079Z,57.75
2022-11-28T19:29:06.807Z,57.86
2022-11-28T19:31:40.284Z,58.19
2022-11-28T19:34:12.423Z,58.09
2022-11-28T19:36:43.738Z,58.24
2022-11-28T19:39:19.736Z,58.19
2022-11-28T19:41:48.575Z,58.02
2022-11-28T19:44:17.120Z,57.93
2022-11-28T19:46:45.713Z,57.97
2022-11-28T19:49:19.365Z,58.11
2022-11-28T19:51:48.336Z,57.64
2022-11-28T19:54:18.984Z,57.98
2022-11-28T19:56:49.820Z,58.13
2022-11-28T19:59:20.562Z,57.99
2022-11-28T20:01:49.941Z,57.80
2022-11-28T20:04:20.254Z,57.70
2022-11-28T20:06:48.219Z,58.01
2022-11-28T20:09:17.923Z,58.22
2022-11-28T20:11:48.093Z,58.08
2022-11-28T20:14:18.080Z,58.06
2022-11-28T20:16:47.046Z,57.72
2022-11-28T20:19:17.713Z,58.01
2022-11-28T20:21:47.589Z,58.28
2022-11-28T20:24:16.493Z,58.19
2022-11-28T20:26:46.539Z,57.84
2022-11-28T20:29:16.575Z,58.29
2022-11-28T20:31:47.834Z,58.02
2022-11-28T20:34:22.198Z,58.40
2022-11-28T20:36:53.894Z,58.23
2022-11-28T20:39:21.993Z,57.94
2022-11-28T20:41:49.810Z,58.15
2022-11-28T20:44:18.856Z,57.87
2022-11-28T20:46:49.496Z,58.23
2022-11-28T20:49:20.208Z,58.41
2022-11-28T20:51:50.272Z,58.03
2022-11-28T20:54:20.037Z,58.08
2022-11-28T20:59:36.634Z,58.07
2022-11-28T21:02:04.650Z,58.32
2022-11-28T21:04:32.746Z,58.12
2022-11-28T21:07:00.584Z,58.34
2022-11-28T21:09:29.834Z,57.89
2022-11-28T21:11:59.249Z,58.13
2022-11-28T21:14:33.708Z,58.17
2022-11-28T21:17:01.674Z,58.09
2022-11-28T21:19:29.813Z,58.27
2022-11-28T21:21:57.737Z,57.96
2022-11-28T21:24:25.579Z,57.99
2022-11-28T21:26:55.057Z,58.14
2022-11-28T21:29:24.625Z,58.45
2022-11-28T21:31:53.097Z,58.10
2022-11-28T21:34:23.565Z,58.23
2022-11-28T21:36:51.674Z,57.87
2022-11-28T21:39:21.901Z,58.04
2022-11-28T21:41:50.923Z,57.83
2022-11-28T21:44:20.347Z,58.11
2022-11-28T21:46:48.286Z,57.96
2022-11-28T21:49:17.054Z,57.81
2022-11-28T21:51:44.994Z,57.92
2022-11-28T21:54:13.429Z,58.37
2022-11-28T21:56:41.881Z,57.99
2022-11-28T21:59:09.917Z,58.28
2022-11-28T22:01:40.269Z,58.06
2022-11-28T22:04:11.013Z,58.16
2022-11-28T22:06:42.491Z,58.02
2022-11-28T22:09:10.611Z,57.98
2022-11-28T22:11:40.649Z,58.35
2022-11-28T22:14:09.105Z,58.05
2022-11-28T22:16:39.542Z,58.07
2022-11-28T22:19:07.533Z,58.43
2022-11-28T22:21:55.773Z,57.99
2022-11-28T22:24:24.206Z,57.91
2022-11-28T22:26:52.096Z,57.98
2022-11-28T22:29:20.110Z,58.27
2022-11-28T22:31:51.220Z,58.00
2022-11-28T22:34:19.504Z,58.02
2022-11-28T22:36:47.371Z,58.25
2022-11-28T22:39:15.381Z,58.21
2022-11-28T22:41:43.628Z,58.44
2022-11-28T22:44:12.508Z,58.10
2022-11-28T22:46:43.125Z,58.52
2022-11-28T22:49:12.555Z,58.09
2022-11-28T22:51:42.066Z,58.46
2022-11-28T22:54:12.970Z,58.12
2022-11-28T22:56:43.267Z,58.14
2022-11-28T22:59:13.193Z,58.23
2022-11-28T23:01:46.265Z,58.09
2022-11-28T23:04:18.532Z,59.41
2022-11-28T23:06:46.740Z,58.51
2022-11-28T23:09:15.090Z,58.39
2022-11-28T23:11:44.943Z,58.08
2022-11-28T23:14:15.011Z,58.12
2022-11-28T23:16:45.071Z,58.28
2022-11-28T23:19:16.863Z,58.19
2022-11-28T23:21:46.649Z,58.31
2022-11-28T23:24:15.561Z,58.37
2022-11-28T23:26:48.720Z,58.34
2022-11-28T23:29:17.773Z,58.30
2022-11-28T23:31:47.278Z,58.22
2022-11-28T23:34:17.172Z,58.39
2022-11-28T23:36:46.618Z,58.15
2022-11-28T23:39:19.479Z,58.57
2022-11-28T23:41:47.677Z,58.45
2022-11-28T23:44:16.928Z,58.38
2022-11-28T23:46:45.280Z,58.06
2022-11-28T23:49:13.566Z,58.03
2022-11-28T23:51:43.190Z,58.49
2022-11-28T23:54:14.199Z,58.17
2022-11-28T23:56:44.334Z,58.35
2022-11-28T23:59:15.457Z,58.27
